Time;durP1;ratioP1;P1;durP2;ratioP2;P2;SDS_P1;SDS_P2;PMS_P1;PMS_P2;Temp;Humidity;BMP_temperature;BMP_pressure;BME280_temperature;BME280_humidity;BME280_pressure;Samples;Min_cycle;Max_cycle;Signal;HPM_P1;HPM_P2
2022/11/05 00:09:28;;;;;;;7.32;5.05;;;;;;;13.75;58.93;100207.75;4821708;29;20126;-82
2022/11/05 00:09:29;;;;;;;8.90;6.78;;;;;;;13.45;57.98;100180.75;4899992;29;20048;-81
2022/11/05 00:17:37;;;;;;;14.60;6.57;;;;;;;13.96;58.80;100289.16;4898566;29;20056;-80
2022/11/05 00:20:05;;;;;;;9.90;6.63;;;;;;;13.81;58.50;100260.47;4880288;29;20596;-81
2022/11/05 00:25:19;;;;;;;13.05;6.07;;;;;;;13.90;58.19;100270.13;4897572;29;20074;-82
2022/11/05 00:27:48;;;;;;;14.55;6.68;;;;;;;13.38;58.97;100214.41;4877404;29;20772;-81
2022/11/05 00:30:21;;;;;;;11.77;7.28;;;;;;;13.94;58.91;100305.31;4886385;29;20043;-82
2022/11/05 00:32:50;;;;;;;9.80;6.72;;;;;;;12.87;59.47;100138.97;4899104;29;20064;-83
2022/11/05 00:35:21;;;;;;;10.40;7.00;;;;;;;13.77;59.53;100283.13;4902071;29;20062;-81
2022/11/05 00:37:48;;;;;;;;;;;;;;;13.89;58.94;100295.16;4899577;28;20143;-84
2022/11/05 00:40:16;;;;;;;10.63;7.28;;;;;;;13.69;59.15;100272.47;4901004;29;19926;-82
2022/11/05 00:45:31;;;;;;;12.95;7.32;;;;;;;13.87;58.83;100301.66;4914373;29;20153;-82
2022/11/05 00:50:44;;;;;;;11.05;7.72;;;;;;;13.85;58.78;100304.47;4877308;29;20267;-81
2022/11/05 00:53:11;;;;;;;11.77;7.50;;;;;;;13.71;58.68;100289.09;4858259;29;20055;-81
2022/11/05 00:55:40;;;;;;;12.90;7.00;;;;;;;13.85;59.07;100330.31;4861331;29;20523;-83
2022/11/05 00:58:12;;;;;;;10.48;7.55;;;;;;;13.73;59.43;100316.47;4879444;29;20052;-84
2022/11/05 01:00:42;;;;;;;8.50;6.60;;;;;;;13.52;59.80;100292.94;4873062;29;20060;-82
2022/11/05 01:03:11;;;;;;;11.10;7.22;;;;;;;13.84;59.47;100329.50;4879427;29;20055;-82
2022/11/05 01:05:44;;;;;;;10.25;7.70;;;;;;;13.14;59.05;100220.47;4878027;29;20043;-83
2022/11/05 01:08:13;;;;;;;10.43;6.97;;;;;;;13.78;60.06;100335.47;4875041;29;20056;-82
2022/11/05 01:10:48;;;;;;;12.00;6.88;;;;;;;13.81;59.77;100323.63;4873870;29;20058;-82
2022/11/05 01:13:21;;;;;;;9.60;6.63;;;;;;;13.82;60.16;100325.31;4872821;29;20067;-82
2022/11/05 01:15:49;;;;;;;9.57;6.70;;;;;;;13.63;59.67;100283.78;4874495;29;20534;-81
2022/11/05 01:18:18;;;;;;;13.77;6.88;;;;;;;13.90;58.98;100311.97;4873863;29;20055;-83
2022/11/05 01:20:49;;;;;;;14.00;6.63;;;;;;;14.01;58.98;100337.53;4875390;29;20064;-83
2022/11/05 01:23:16;;;;;;;11.00;6.30;;;;;;;13.28;59.68;100232.38;4861521;29;20660;-81
2022/11/05 01:25:50;;;;;;;13.10;6.88;;;;;;;13.73;59.70;100300.44;4891565;29;20697;-82
2022/11/05 01:28:16;;;;;;;10.48;7.07;;;;;;;13.76;59.70;100332.16;4872725;29;20062;-82
2022/11/05 01:30:43;;;;;;;15.05;7.07;;;;;;;13.65;60.78;100335.97;4895361;29;20051;-82
2022/11/05 01:33:10;;;;;;;11.38;7.82;;;;;;;13.29;60.50;100266.03;4891060;29;20058;-82
2022/11/05 01:35:38;;;;;;;12.05;7.75;;;;;;;13.57;60.54;100311.94;4872191;29;20366;-82
2022/11/05 01:38:07;;;;;;;9.50;8.10;;;;;;;13.64;60.60;100336.09;4876897;29;20486;-83
2022/11/05 01:40:41;;;;;;;11.68;7.63;;;;;;;13.35;60.76;100286.72;4876440;29;20061;-81
2022/11/05 01:43:15;;;;;;;11.57;7.80;;;;;;;13.63;60.82;100323.78;4875641;29;20382;-81
2022/11/05 01:45:44;;;;;;;11.57;7.22;;;;;;;13.40;60.61;100280.91;4894919;29;20574;-82
2022/11/05 01:48:20;;;;;;;15.70;8.48;;;;;;;13.71;60.84;100329.13;4896405;29;20393;-83
2022/11/05 01:50:59;;;;;;;12.40;7.70;;;;;;;13.75;60.47;100332.31;4875435;29;20497;-84
2022/11/05 01:53:39;;;;;;;11.30;7.38;;;;;;;13.66;60.89;100324.28;4878866;29;20063;-80
2022/11/05 01:56:25;;;;;;;12.38;7.88;;;;;;;13.69;60.68;100323.16;4873737;29;20418;-80
2022/11/05 01:59:05;;;;;;;12.95;7.93;;;;;;;13.76;60.18;100326.81;4877424;29;20142;-83
2022/11/05 02:01:35;;;;;;;12.23;7.95;;;;;;;13.74;60.48;100334.16;4875604;29;20083;-82
2022/11/05 02:04:07;;;;;;;16.40;8.10;;;;;;;12.37;61.15;100132.63;4879797;29;20360;-83
2022/11/05 02:06:37;;;;;;;8.85;7.32;;;;;;;13.63;61.22;100331.78;4875285;29;20056;-83
2022/11/05 02:09:07;;;;;;;12.13;7.47;;;;;;;13.65;60.83;100324.47;4898075;29;20148;-81
2022/11/05 02:11:35;;;;;;;13.73;8.82;;;;;;;13.76;60.78;100340.16;4880002;29;20060;-82
2022/11/05 02:14:03;;;;;;;10.55;8.18;;;;;;;13.66;61.07;100342.94;4881314;29;20553;-82
2022/11/05 02:16:40;;;;;;;13.55;8.25;;;;;;;13.72;60.95;100336.16;4884989;29;20079;-82
2022/11/05 02:19:44;;;;;;;15.32;8.00;;;;;;;13.68;61.02;100340.97;4884657;29;20354;-82
2022/11/05 02:22:41;;;;;;;14.18;7.88;;;;;;;13.80;60.64;100332.66;4899548;29;20119;-81
2022/11/05 02:25:36;;;;;;;17.95;9.75;;;;;;;13.58;60.72;100302.09;4899762;29;20140;-82
2022/11/05 02:28:24;;;;;;;18.67;9.75;;;;;;;13.21;60.44;100252.66;4880089;29;20091;-79
2022/11/05 02:31:03;;;;;;;13.35;8.73;;;;;;;13.65;60.94;100340.47;4881087;29;20056;-81
2022/11/05 02:34:02;;;;;;;13.82;9.43;;;;;;;13.66;60.71;100347.44;4878270;29;20071;-82
2022/11/05 02:36:36;;;;;;;10.32;8.30;;;;;;;13.67;60.35;100343.81;4883046;29;20052;-82
2022/11/05 02:39:35;;;;;;;14.50;9.02;;;;;;;13.43;60.67;100325.91;4885334;29;20133;-82
2022/11/05 02:42:05;;;;;;;14.82;9.50;;;;;;;13.61;60.89;100368.44;4886072;29;20470;-83
2022/11/05 02:44:55;;;;;;;17.38;9.40;;;;;;;13.39;61.29;100356.53;4897781;29;20425;-82
2022/11/05 02:47:41;;;;;;;14.80;9.77;;;;;;;13.43;60.90;100372.06;4900141;29;20136;-81
2022/11/05 02:50:32;;;;;;;17.92;10.05;;;;;;;13.67;60.64;100386.50;4881453;29;20264;-83
2022/11/05 02:53:18;;;;;;;13.20;9.60;;;;;;;13.54;60.86;100372.75;4882691;29;20193;-82
2022/11/05 02:56:21;;;;;;;17.30;9.80;;;;;;;13.10;60.78;100319.56;4884886;29;20064;-82
2022/11/05 02:58:48;;;;;;;14.82;9.90;;;;;;;13.32;60.55;100345.66;4869041;29;20052;-83
2022/11/05 03:01:18;;;;;;;16.90;10.32;;;;;;;13.72;60.33;100396.69;4883156;29;21024;-82
2022/11/05 03:03:50;;;;;;;14.35;10.88;;;;;;;13.29;60.52;100335.34;4901467;29;20052;-83
2022/11/05 03:06:47;;;;;;;15.43;10.68;;;;;;;12.18;60.61;100152.34;4883832;29;20392;-83
2022/11/05 03:09:56;;;;;;;17.33;10.15;;;;;;;13.52;60.95;100399.59;4899623;29;20051;-82
2022/11/05 03:13:11;;;;;;;15.05;10.65;;;;;;;13.56;61.23;100405.44;4886780;29;20142;-84
2022/11/05 03:16:01;;;;;;;15.35;10.55;;;;;;;13.37;61.71;100399.34;4886602;29;20226;-82
2022/11/05 03:18:44;;;;;;;13.80;10.40;;;;;;;13.30;60.97;100363.69;4894059;29;20279;-83
2022/11/05 03:21:20;;;;;;;17.20;11.20;;;;;;;13.42;61.60;100409.53;4884170;29;20229;-81
2022/11/05 03:23:55;;;;;;;14.85;10.63;;;;;;;13.29;62.12;100393.16;4885593;29;20051;-83
2022/11/05 03:26:30;;;;;;;16.17;11.40;;;;;;;13.46;60.97;100403.72;4887029;29;20600;-81
2022/11/05 03:29:15;;;;;;;16.40;10.98;;;;;;;13.45;60.92;100393.25;4884632;29;20056;-82
2022/11/05 03:31:46;;;;;;;18.17;11.38;;;;;;;13.33;61.75;100400.69;4882725;29;20057;-81
2022/11/05 03:34:16;;;;;;;18.52;12.18;;;;;;;13.24;62.10;100404.25;4885723;29;20070;-81
2022/11/05 03:36:49;;;;;;;18.33;11.93;;;;;;;13.09;62.28;100381.88;4882216;29;20052;-82
2022/11/05 03:39:27;;;;;;;16.00;12.63;;;;;;;13.37;62.12;100423.34;4883976;29;20059;-83
2022/11/05 03:41:58;;;;;;;17.30;12.82;;;;;;;13.38;62.15;100442.88;4886614;29;20605;-82
2022/11/05 03:44:31;;;;;;;16.17;12.07;;;;;;;13.43;62.63;100438.72;4865095;29;20395;-81
2022/11/05 03:47:16;;;;;;;17.67;11.82;;;;;;;13.21;62.66;100394.75;4900900;29;20549;-83
2022/11/05 03:49:58;;;;;;;15.55;11.90;;;;;;;13.22;62.22;100408.91;4883213;29;20342;-83
2022/11/05 03:52:32;;;;;;;19.02;14.20;;;;;;;13.20;62.49;100408.22;4881231;29;20452;-82
2022/11/05 03:54:59;;;;;;;17.80;12.40;;;;;;;12.55;63.02;100304.78;4881788;29;20166;-83
2022/11/05 03:57:31;;;;;;;15.70;12.32;;;;;;;13.28;63.42;100424.31;4880804;29;20476;-80
2022/11/05 04:00:06;;;;;;;16.58;12.55;;;;;;;13.48;63.47;100453.41;4869194;29;20067;-81
2022/11/05 04:02:33;;;;;;;;;;;;;;;13.57;62.92;100452.44;4877098;29;20509;-81
2022/11/05 04:05:00;;;;;;;16.02;12.60;;;;;;;12.63;63.00;100312.00;4881709;29;20046;-82
2022/11/05 04:18:31;;;;;;;14.73;12.40;;;;;;;13.27;63.32;100467.94;4882992;29;20162;-80
2022/11/05 04:24:07;;;;;;;14.55;11.20;;;;;;;12.66;63.31;100375.59;4873228;29;20056;-80
2022/11/05 04:26:36;;;;;;;14.80;10.95;;;;;;;13.34;63.43;100498.31;4879496;29;20056;-82
2022/11/05 04:31:53;;;;;;;17.13;11.57;;;;;;;13.04;62.87;100430.31;4880264;29;20300;-82
2022/11/05 04:34:25;;;;;;;13.63;10.88;;;;;;;13.36;63.29;100507.00;4879809;29;20814;-81
2022/11/05 04:36:52;;;;;;;15.20;11.45;;;;;;;13.28;63.05;100472.31;4881370;29;20119;-81
2022/11/05 04:39:19;;;;;;;13.68;11.82;;;;;;;13.25;63.07;100468.09;4879604;29;20748;-81
2022/11/05 04:41:49;;;;;;;18.65;11.48;;;;;;;13.30;63.23;100486.31;4880076;29;21113;-81
2022/11/05 04:44:17;;;;;;;13.75;11.23;;;;;;;13.33;62.99;100458.50;4879257;29;20501;-81
2022/11/05 04:46:47;;;;;;;13.48;10.85;;;;;;;13.38;63.07;100494.34;4879863;29;20734;-83
2022/11/05 04:49:13;;;;;;;15.00;11.70;;;;;;;12.81;63.47;100400.66;4877945;29;20067;-80
2022/11/05 04:51:40;;;;;;;16.67;11.05;;;;;;;13.53;62.62;100504.44;4879087;29;20825;-82
2022/11/05 04:54:07;;;;;;;14.68;11.27;;;;;;;12.92;62.95;100387.09;4878616;29;20837;-81
2022/11/05 04:56:34;;;;;;;14.88;10.82;;;;;;;13.44;63.18;100485.72;4879361;29;20246;-83
2022/11/05 04:59:01;;;;;;;14.10;11.77;;;;;;;13.66;62.23;100492.31;4876968;29;20635;-82
2022/11/05 05:01:27;;;;;;;14.38;11.98;;;;;;;13.50;62.83;100486.09;4879618;29;20151;-80
2022/11/05 05:03:54;;;;;;;15.55;11.75;;;;;;;13.42;62.74;100478.88;4881897;29;20059;-81
2022/11/05 05:06:21;;;;;;;15.98;11.77;;;;;;;13.35;63.30;100484.00;4901575;29;20349;-81
2022/11/05 05:08:50;;;;;;;13.18;11.25;;;;;;;13.47;62.84;100495.22;4883654;29;20186;-80
2022/11/05 05:11:19;;;;;;;14.20;12.20;;;;;;;13.55;63.11;100508.63;4899030;29;20090;-83
2022/11/05 05:13:49;;;;;;;17.10;11.75;;;;;;;13.55;63.09;100513.13;4882740;29;20044;-82
2022/11/05 05:16:26;;;;;;;14.20;10.80;;;;;;;13.34;62.98;100473.50;4880648;29;20268;-82
2022/11/05 05:18:53;;;;;;;17.23;10.95;;;;;;;13.46;62.62;100491.72;4880873;29;20051;-81
2022/11/05 05:21:40;;;;;;;13.95;10.65;;;;;;;13.64;62.87;100498.81;4882516;29;20186;-82
2022/11/05 05:24:14;;;;;;;15.77;11.02;;;;;;;12.80;62.92;100383.00;4900203;29;20686;-82
2022/11/05 05:26:43;;;;;;;14.77;11.20;;;;;;;13.56;62.99;100520.13;4881164;29;20091;-81
2022/11/05 05:29:10;;;;;;;13.48;10.45;;;;;;;13.55;62.85;100505.13;4866876;29;20059;-81
2022/11/05 05:31:41;;;;;;;13.48;10.50;;;;;;;13.46;62.73;100491.72;4883623;29;20231;-82
2022/11/05 05:34:13;;;;;;;13.38;11.25;;;;;;;13.60;62.45;100524.16;4882084;29;20052;-81
2022/11/05 05:36:40;;;;;;;14.80;10.30;;;;;;;13.72;62.18;100522.88;4881583;29;20512;-82
2022/11/05 05:39:09;;;;;;;13.38;10.13;;;;;;;13.26;62.19;100471.59;4885006;29;20082;-83
2022/11/05 05:41:36;;;;;;;13.65;9.73;;;;;;;12.97;61.89;100422.09;4899222;29;20047;-82
2022/11/05 05:44:05;;;;;;;13.60;10.55;;;;;;;13.47;61.86;100495.22;4881072;29;20062;-82
2022/11/05 05:46:32;;;;;;;15.20;10.35;;;;;;;13.87;60.92;100550.63;4898335;29;20048;-82
2022/11/05 05:48:59;;;;;;;12.80;9.70;;;;;;;13.06;61.59;100454.97;4881346;29;20404;-79
2022/11/05 05:51:25;;;;;;;14.10;10.20;;;;;;;13.55;61.66;100539.81;4897245;29;20434;-81
2022/11/05 05:53:55;;;;;;;14.38;10.95;;;;;;;13.57;62.03;100561.78;4881054;29;20604;-82
2022/11/05 05:56:23;;;;;;;15.02;9.55;;;;;;;13.23;62.48;100531.38;4878803;29;20059;-81
2022/11/05 05:58:50;;;;;;;13.32;9.65;;;;;;;13.38;62.17;100546.84;4874696;29;20480;-80
2022/11/05 06:01:20;;;;;;;14.25;10.05;;;;;;;13.30;61.66;100515.66;4882284;29;20549;-80
2022/11/05 06:03:48;;;;;;;10.52;9.10;;;;;;;13.51;61.37;100546.44;4860552;29;20059;-81
2022/11/05 06:06:18;;;;;;;13.77;10.18;;;;;;;13.51;60.68;100530.44;4859032;29;20274;-80
2022/11/05 06:08:46;;;;;;;10.63;9.38;;;;;;;13.19;61.38;100502.53;4857824;29;20086;-81
2022/11/05 06:11:13;;;;;;;14.73;10.30;;;;;;;13.76;61.11;100580.28;4860218;29;20060;-81
2022/11/05 06:13:40;;;;;;;15.25;9.38;;;;;;;13.62;60.56;100571.00;4860687;29;20163;-81
2022/11/05 06:16:08;;;;;;;14.23;10.02;;;;;;;13.60;60.48;100582.84;4856619;29;20163;-81
2022/11/05 06:18:36;;;;;;;12.82;9.82;;;;;;;13.01;61.03;100494.53;4858716;29;20446;-82
2022/11/05 06:21:04;;;;;;;11.32;9.30;;;;;;;13.51;61.20;100575.78;4853450;29;20470;-81
2022/11/05 06:23:33;;;;;;;14.50;9.73;;;;;;;13.43;60.42;100561.38;4858117;29;20605;-81
2022/11/05 06:26:01;;;;;;;13.38;9.93;;;;;;;13.79;60.51;100606.63;4856947;29;20049;-83
2022/11/05 06:28:28;;;;;;;12.52;9.20;;;;;;;12.45;59.25;100376.78;4858033;29;20060;-81
2022/11/05 06:30:56;;;;;;;12.23;9.52;;;;;;;13.25;60.03;100532.06;4871518;29;20499;-81
2022/11/05 06:33:25;;;;;;;18.45;10.45;;;;;;;12.31;59.86;100387.97;4895600;29;20495;-80
2022/11/05 06:35:53;;;;;;;11.00;9.35;;;;;;;13.68;60.06;100622.91;4881919;29;20515;-80
2022/11/05 06:38:20;;;;;;;16.20;10.75;;;;;;;13.65;59.87;100620.53;4862865;29;20116;-80
2022/11/05 06:40:47;;;;;;;13.75;9.70;;;;;;;13.44;59.96;100595.03;4862610;29;20086;-80
2022/11/05 06:43:15;;;;;;;12.18;8.63;;;;;;;13.29;59.92;100575.28;4863022;29;20500;-79
2022/11/05 06:45:50;;;;;;;13.77;10.25;;;;;;;13.70;59.53;100636.09;4864141;29;20503;-78
2022/11/05 06:48:16;;;;;;;14.43;9.68;;;;;;;13.72;59.59;100634.94;4861346;29;20049;-80
2022/11/05 06:50:44;;;;;;;14.73;9.70;;;;;;;13.58;59.74;100622.16;4876044;29;20200;-77
2022/11/05 06:53:16;;;;;;;13.20;9.48;;;;;;;13.56;59.37;100613.47;4875525;29;20352;-80
2022/11/05 06:55:49;;;;;;;15.40;10.13;;;;;;;13.20;59.68;100566.34;4875488;29;20418;-81
2022/11/05 06:58:15;;;;;;;17.00;9.65;;;;;;;13.80;59.68;100653.66;4876320;29;20116;-81
2022/11/05 07:00:42;;;;;;;13.23;9.10;;;;;;;13.73;59.29;100652.59;4874300;29;20053;-81
2022/11/05 07:03:10;;;;;;;13.93;9.13;;;;;;;13.27;58.78;100595.91;4903469;29;20055;-81
2022/11/05 07:05:43;;;;;;;13.07;9.20;;;;;;;13.76;58.77;100663.00;4912205;28;20397;-80
2022/11/05 07:08:13;;;;;;;11.68;9.20;;;;;;;13.86;58.57;100677.06;4922196;29;20639;-81
2022/11/05 07:10:41;;;;;;;10.67;9.10;;;;;;;13.71;58.34;100665.25;4915124;29;20056;-80
2022/11/05 07:13:09;;;;;;;14.23;9.15;;;;;;;13.81;58.30;100690.03;4883830;29;20312;-79
2022/11/05 07:15:37;;;;;;;10.05;7.70;;;;;;;13.80;58.28;100696.34;4880851;29;20059;-80
2022/11/05 07:18:07;;;;;;;16.58;8.77;;;;;;;13.78;58.60;100686.81;4870058;29;20063;-80
2022/11/05 07:20:34;;;;;;;10.75;7.95;;;;;;;13.88;57.97;100698.25;4886578;29;20054;-82
2022/11/05 07:23:02;;;;;;;11.73;8.20;;;;;;;13.95;57.69;100709.13;4887045;29;20478;-80
2022/11/05 07:25:31;;;;;;;10.45;7.93;;;;;;;13.49;57.82;100655.09;4884969;29;20521;-81
2022/11/05 07:27:58;;;;;;;10.35;7.32;;;;;;;13.22;57.63;100612.34;4883807;29;20058;-80
2022/11/05 07:30:28;;;;;;;9.55;7.18;;;;;;;13.69;57.33;100677.94;4893097;29;20051;-80
2022/11/05 07:32:58;;;;;;;12.52;7.22;;;;;;;13.89;57.17;100706.09;4902751;28;20059;-82
2022/11/05 07:35:28;;;;;;;9.32;7.35;;;;;;;13.90;57.11;100715.78;4902317;29;20069;-81
2022/11/05 07:37:57;;;;;;;10.10;7.13;;;;;;;13.51;57.61;100653.09;4903987;29;20055;-81
2022/11/05 07:40:26;;;;;;;11.48;6.88;;;;;;;12.84;56.86;100538.91;4901104;29;20551;-79
2022/11/05 07:42:58;;;;;;;9.68;5.93;;;;;;;13.68;57.02;100668.25;4904168;29;20137;-79
2022/11/05 07:45:27;;;;;;;8.57;5.80;;;;;;;14.09;56.66;100719.25;4905569;29;20089;-79
2022/11/05 07:48:02;;;;;;;12.25;6.75;;;;;;;13.54;56.72;100626.13;4899618;29;20358;-81
2022/11/05 07:50:34;;;;;;;9.00;5.82;;;;;;;14.29;55.66;100731.38;4900650;29;20055;-79
2022/11/05 07:53:10;;;;;;;8.52;6.50;;;;;;;14.11;55.73;100687.91;4881808;29;20713;-81
2022/11/05 07:55:39;;;;;;;9.10;6.45;;;;;;;14.35;55.67;100734.44;4884435;29;20530;-81
2022/11/05 07:58:09;;;;;;;;;;;;;;;14.32;56.14;100744.44;4904698;28;20823;-80
2022/11/05 08:00:36;;;;;;;9.48;5.88;;;;;;;14.37;55.64;100745.78;4903690;29;20025;-79
2022/11/05 08:03:10;;;;;;;7.65;5.97;;;;;;;14.38;55.14;100732.28;4907179;28;20166;-80
2022/11/05 08:05:40;;;;;;;10.57;5.68;;;;;;;14.53;55.08;100737.88;4865869;29;20196;-79
2022/11/05 08:08:08;;;;;;;9.77;5.28;;;;;;;14.01;54.00;100631.97;4864567;29;20120;-81
2022/11/05 08:10:41;;;;;;;7.95;5.60;;;;;;;14.67;53.89;100747.16;4866396;29;20250;-80
2022/11/05 08:13:08;;;;;;;6.40;5.20;;;;;;;14.60;54.06;100728.25;4863715;29;21045;-80
2022/11/05 08:15:36;;;;;;;7.82;5.35;;;;;;;14.05;53.14;100629.78;4882041;29;20486;-81
2022/11/05 08:18:05;;;;;;;10.48;5.15;;;;;;;14.65;53.76;100738.47;4881656;29;20056;-80
2022/11/05 08:20:33;;;;;;;7.22;5.15;;;;;;;14.55;53.73;100732.41;4898441;29;20179;-78
2022/11/05 08:23:04;;;;;;;7.65;4.97;;;;;;;14.76;54.07;100767.59;4880196;29;20385;-81
2022/11/05 08:25:31;;;;;;;8.32;5.38;;;;;;;14.51;53.93;100715.81;4875030;29;20719;-81
2022/11/05 08:28:04;;;;;;;8.43;5.00;;;;;;;14.21;53.77;100672.59;4878607;29;20515;-81
2022/11/05 08:30:35;;;;;;;6.65;5.13;;;;;;;14.30;53.10;100676.16;4888822;28;20077;-81
2022/11/05 08:33:05;;;;;;;6.82;4.75;;;;;;;14.92;53.05;100772.16;4889261;29;20082;-81
2022/11/05 08:35:34;;;;;;;7.43;4.45;;;;;;;15.01;52.71;100787.25;4922688;28;20069;-82
2022/11/05 08:38:02;;;;;;;12.55;5.50;;;;;;;14.84;52.38;100756.09;4891243;29;20698;-81
2022/11/05 08:40:32;;;;;;;5.47;4.60;;;;;;;15.07;52.46;100786.63;4864687;29;20060;-81
2022/11/05 08:43:02;;;;;;;9.65;5.60;;;;;;;13.71;53.36;100589.72;4881016;29;20062;-81
2022/11/05 08:45:31;;;;;;;9.45;4.97;;;;;;;15.09;52.47;100781.91;4864523;29;20056;-80
2022/11/05 08:48:07;;;;;;;7.10;4.50;;;;;;;14.96;52.83;100773.53;4893629;29;20052;-82
2022/11/05 08:50:36;;;;;;;9.43;4.70;;;;;;;15.12;52.00;100791.44;4885863;29;20792;-80
2022/11/05 08:53:07;;;;;;;10.38;5.35;;;;;;;15.24;52.02;100805.38;4875582;29;20063;-82
2022/11/05 08:55:37;;;;;;;7.85;4.82;;;;;;;15.04;51.92;100780.75;4880201;29;20114;-79
2022/11/05 08:58:11;;;;;;;11.38;5.57;;;;;;;15.08;52.31;100792.78;4880819;29;20139;-80
2022/11/05 09:00:38;;;;;;;8.65;5.07;;;;;;;14.62;52.70;100728.94;4884975;29;20044;-80
2022/11/05 09:03:09;;;;;;;6.75;4.88;;;;;;;14.87;52.35;100779.81;4859972;29;20580;-79
2022/11/05 09:05:38;;;;;;;7.38;5.03;;;;;;;14.53;53.25;100730.72;4864231;29;20116;-80
2022/11/05 09:08:10;;;;;;;6.93;5.13;;;;;;;14.88;52.71;100789.50;4866097;29;20048;-81
2022/11/05 09:10:42;;;;;;;6.90;5.38;;;;;;;14.36;52.66;100701.41;4868295;29;20060;-81
2022/11/05 09:13:12;;;;;;;7.30;4.80;;;;;;;15.14;52.31;100830.41;4883649;29;20047;-78
2022/11/05 09:15:46;;;;;;;5.78;4.43;;;;;;;15.01;52.20;100800.63;4883693;29;20441;-81
2022/11/05 09:18:18;;;;;;;6.57;3.90;;;;;;;15.27;52.07;100834.50;4882187;29;20055;-79
2022/11/05 09:20:45;;;;;;;12.38;5.00;;;;;;;15.27;51.65;100818.44;4880500;29;20052;-81
2022/11/05 09:23:15;;;;;;;6.32;4.38;;;;;;;15.33;51.76;100833.81;4883198;29;20060;-82
2022/11/05 09:25:45;;;;;;;6.60;4.68;;;;;;;15.28;51.17;100809.41;4861395;29;20166;-80
2022/11/05 09:28:17;;;;;;;6.78;4.82;;;;;;;14.61;51.47;100702.38;4860442;29;20048;-82
2022/11/05 09:30:49;;;;;;;7.30;4.70;;;;;;;15.48;51.21;100837.53;4857464;29;20589;-80
2022/11/05 09:33:20;;;;;;;6.03;4.45;;;;;;;14.84;50.60;100729.38;4879483;29;20075;-81
2022/11/05 09:35:47;;;;;;;9.40;4.93;;;;;;;15.38;50.84;100810.09;4903453;28;20554;-80
2022/11/05 09:38:14;;;;;;;7.70;5.82;;;;;;;15.44;50.95;100814.81;4878751;29;20711;-82
2022/11/05 09:41:19;;;;;;;6.90;4.57;;;;;;;15.57;50.37;100830.38;4887682;29;20047;-80
2022/11/05 09:43:55;;;;;;;5.38;4.60;;;;;;;15.67;50.73;100852.50;4904302;28;20047;-80
2022/11/05 09:46:29;;;;;;;7.07;4.55;;;;;;;15.65;50.99;100851.81;4894610;28;20172;-80
2022/11/05 09:49:06;;;;;;;6.88;4.93;;;;;;;14.90;50.65;100724.22;4878575;29;20138;-80
2022/11/05 09:51:35;;;;;;;9.00;4.70;;;;;;;15.75;50.15;100836.50;4873525;29;20285;-82
2022/11/05 09:54:04;;;;;;;6.55;4.45;;;;;;;15.98;49.95;100855.44;4906605;29;20440;-79
2022/11/05 09:56:35;;;;;;;8.45;4.75;;;;;;;15.70;49.83;100803.19;4912218;29;20079;-80
2022/11/05 09:59:15;;;;;;;5.15;4.20;;;;;;;16.14;48.84;100854.63;4898808;29;20425;-81
2022/11/05 10:01:43;;;;;;;6.82;4.40;;;;;;;16.18;48.53;100855.09;4893514;28;20059;-81
2022/11/05 10:04:19;;;;;;;5.65;4.32;;;;;;;15.93;47.97;100825.63;4896502;29;20047;-81
2022/11/05 10:06:59;;;;;;;10.00;4.78;;;;;;;16.22;48.28;100840.38;4897402;28;20043;-82
2022/11/05 10:09:46;;;;;;;4.25;3.83;;;;;;;15.95;47.16;100796.03;4901866;28;20051;-81
2022/11/05 10:12:30;;;;;;;6.22;3.92;;;;;;;16.28;47.73;100838.88;4880918;29;20649;-81
2022/11/05 10:15:26;;;;;;;5.65;3.97;;;;;;;16.46;46.93;100842.22;4894268;29;20138;-81
2022/11/05 10:18:03;;;;;;;5.30;4.07;;;;;;;16.71;45.73;100839.50;4899982;29;20480;-82
2022/11/05 10:20:45;;;;;;;4.40;3.65;;;;;;;17.00;46.59;100849.69;4897498;29;20533;-81
2022/11/05 10:23:20;;;;;;;7.15;4.10;;;;;;;17.05;45.73;100799.88;4885703;29;20535;-83
2022/11/05 10:25:53;;;;;;;6.38;3.85;;;;;;;17.27;45.30;100814.34;4883868;29;20055;-81
2022/11/05 10:28:30;;;;;;;7.82;3.78;;;;;;;17.58;43.85;100856.47;4878736;29;20240;-82
2022/11/05 10:31:03;;;;;;;4.75;4.00;;;;;;;17.44;43.35;100784.75;4900460;29;20236;-80
2022/11/05 10:33:33;;;;;;;5.82;3.78;;;;;;;17.96;42.96;100834.28;4897114;29;20059;-82
2022/11/05 10:36:13;;;;;;;6.75;3.78;;;;;;;17.86;42.81;100815.72;4896694;29;20062;-81
2022/11/05 10:38:40;;;;;;;4.80;3.42;;;;;;;17.79;43.50;100785.19;4895720;29;20070;-79
2022/11/05 10:41:45;;;;;;;4.22;2.83;;;;;;;18.29;41.95;100837.53;4895865;29;20055;-81
2022/11/05 10:44:32;;;;;;;9.65;3.70;;;;;;;18.42;42.04;100845.81;4894527;28;20257;-81
2022/11/05 10:47:11;;;;;;;4.65;3.00;;;;;;;18.05;40.66;100788.38;4896124;29;20126;-80
2022/11/05 10:49:57;;;;;;;4.22;3.05;;;;;;;17.33;41.05;100691.22;4883336;29;20048;-82
2022/11/05 10:52:38;;;;;;;3.88;2.50;;;;;;;18.19;41.02;100823.53;4878371;29;20498;-81
2022/11/05 10:55:36;;;;;;;3.58;2.53;;;;;;;18.29;39.59;100845.59;4880814;29;20919;-83
2022/11/05 10:58:27;;;;;;;5.93;2.25;;;;;;;18.23;39.34;100851.69;4879578;29;20059;-82
2022/11/05 11:00:54;;;;;;;5.25;2.38;;;;;;;18.11;40.88;100846.75;4881876;29;20055;-82
2022/11/05 11:03:41;;;;;;;2.67;1.98;;;;;;;18.00;39.27;100854.41;4880082;29;20063;-80
2022/11/05 11:06:28;;;;;;;3.60;1.92;;;;;;;16.64;39.16;100647.19;4879783;29;20521;-82
2022/11/05 11:08:58;;;;;;;2.83;2.00;;;;;;;17.58;38.98;100801.97;4900775;29;20372;-79
2022/11/05 11:11:36;;;;;;;2.83;1.98;;;;;;;17.80;38.69;100845.94;4901655;29;20348;-82
2022/11/05 11:14:23;;;;;;;2.97;1.67;;;;;;;17.71;38.64;100851.34;4882044;29;20067;-81
2022/11/05 11:17:13;;;;;;;5.25;2.00;;;;;;;17.70;39.51;100863.13;4887360;29;20134;-80
2022/11/05 11:19:40;;;;;;;3.58;2.40;;;;;;;17.64;39.29;100846.88;4866955;29;20558;-81
2022/11/05 11:22:13;;;;;;;3.72;2.40;;;;;;;17.63;40.33;100856.78;4888023;29;20135;-83
2022/11/05 11:24:46;;;;;;;6.45;3.60;;;;;;;17.50;40.93;100857.34;4887310;29;20056;-79
2022/11/05 11:27:26;;;;;;;5.45;3.40;;;;;;;17.37;40.46;100845.50;4878439;29;20585;-79
2022/11/05 11:29:59;;;;;;;5.78;2.78;;;;;;;17.20;40.97;100824.09;4917893;28;20129;-80
2022/11/05 11:32:34;;;;;;;6.03;3.40;;;;;;;16.94;41.08;100783.31;4901882;29;20065;-81
2022/11/05 11:35:02;;;;;;;7.78;3.58;;;;;;;17.29;41.40;100852.59;4900951;29;20053;-81
2022/11/05 11:37:40;;;;;;;6.50;4.32;;;;;;;17.07;41.19;100788.97;4886010;29;20485;-82
2022/11/05 11:40:21;;;;;;;4.97;3.63;;;;;;;17.24;42.01;100830.81;4900035;29;20047;-82
2022/11/05 11:42:56;;;;;;;4.72;3.47;;;;;;;17.44;41.14;100849.16;4902129;29;20126;-82
2022/11/05 11:45:37;;;;;;;5.85;3.40;;;;;;;17.33;41.38;100846.84;4900418;29;20415;-80
2022/11/05 11:48:05;;;;;;;3.25;2.95;;;;;;;17.34;41.29;100851.22;4900690;28;20059;-81
2022/11/05 11:50:32;;;;;;;5.03;2.83;;;;;;;17.54;40.29;100860.50;4897489;29;20276;-81
2022/11/05 11:53:35;;;;;;;5.03;3.13;;;;;;;17.12;40.51;100837.56;4881154;29;20163;-81
2022/11/05 11:56:12;;;;;;;4.07;2.58;;;;;;;17.26;40.92;100868.22;4801069;29;20050;-81
2022/11/05 11:58:45;;;;;;;3.47;2.63;;;;;;;17.08;39.62;100820.97;4869076;29;20316;-82
2022/11/05 12:01:35;;;;;;;4.75;2.47;;;;;;;17.24;39.67;100856.81;4884803;29;20163;-82
2022/11/05 12:04:45;;;;;;;2.95;1.95;;;;;;;17.13;39.33;100841.06;4891767;29;20541;-80
2022/11/05 12:07:19;;;;;;;7.57;2.00;;;;;;;17.01;39.13;100816.47;4878107;29;20613;-80
2022/11/05 12:10:14;;;;;;;4.38;1.75;;;;;;;15.96;38.07;100648.59;4884218;29;20459;-81
2022/11/05 12:13:12;;;;;;;2.53;1.45;;;;;;;17.27;37.30;100851.91;4882736;29;20056;-80
2022/11/05 12:15:51;;;;;;;4.68;1.77;;;;;;;17.09;37.75;100821.81;4885822;29;20462;-81
2022/11/05 12:18:34;;;;;;;1.92;1.58;;;;;;;17.28;38.24;100853.59;4885074;29;20561;-81
2022/11/05 12:21:37;;;;;;;4.97;2.25;;;;;;;17.12;38.58;100802.69;4883738;29;20252;-80
2022/11/05 12:25:10;;;;;;;2.33;1.30;;;;;;;17.33;39.66;100854.91;4877831;29;20062;-81
2022/11/05 12:27:37;;;;;;;4.60;2.30;;;;;;;17.37;40.01;100850.88;4891645;29;20142;-80